createdAt,value
2022-11-29T00:02:31.631Z,2.55
2022-11-29T00:07:53.486Z,2.40
2022-11-29T00:13:15.287Z,2.70
2022-11-29T00:18:37.013Z,1.65
2022-11-29T00:23:59.226Z,2.30
2022-11-29T00:29:21.014Z,2.33
2022-11-29T00:34:42.966Z,2.60
2022-11-29T00:40:05.782Z,4.05
2022-11-29T00:45:27.510Z,1.75
2022-11-29T00:50:49.227Z,1.52
2022-11-29T00:56:11.056Z,1.73
2022-11-29T01:01:32.738Z,1.55
2022-11-29T01:06:54.379Z,3.92
2022-11-29T01:12:16.010Z,1.48
2022-11-29T01:17:40.569Z,1.00
2022-11-29T01:23:02.262Z,1.40
2022-11-29T01:28:24.027Z,1.92
2022-11-29T01:33:46.631Z,0.70
2022-11-29T01:39:08.506Z,1.05
2022-11-29T01:44:30.079Z,0.95
2022-11-29T01:49:51.787Z,1.15
2022-11-29T01:55:14.389Z,1.70
2022-11-29T02:00:36.528Z,0.82
2022-11-29T02:05:59.427Z,1.15
2022-11-29T02:11:50.087Z,1.98
2022-11-29T02:17:35.694Z,0.82
2022-11-29T02:23:31.556Z,1.02
2022-11-29T02:29:11.732Z,1.13
2022-11-29T02:35:02.481Z,1.55
2022-11-29T02:40:58.624Z,0.75
2022-11-29T02:46:32.160Z,0.75
2022-11-29T02:52:03.160Z,0.93
2022-11-29T02:57:46.007Z,0.63
2022-11-29T03:03:21.520Z,0.55
2022-11-29T03:09:07.585Z,0.50
2022-11-29T03:14:58.796Z,0.47
2022-11-29T03:20:46.359Z,0.40
2022-11-29T03:26:14.657Z,1.00
2022-11-29T03:31:41.220Z,0.55
2022-11-29T03:37:11.471Z,0.93
2022-11-29T03:42:45.183Z,0.82
2022-11-29T03:48:15.880Z,0.70
2022-11-29T03:54:00.114Z,0.55
2022-11-29T03:59:49.035Z,0.60
2022-11-29T04:05:33.071Z,0.55
2022-11-29T04:11:11.111Z,0.80
2022-11-29T04:16:51.251Z,0.45
2022-11-29T04:22:35.917Z,0.60
2022-11-29T04:28:15.962Z,0.60
2022-11-29T04:33:55.681Z,0.60
2022-11-29T04:39:31.153Z,0.50
2022-11-29T04:45:18.330Z,0.70
2022-11-29T04:50:53.567Z,0.90
2022-11-29T04:56:47.056Z,0.50
2022-11-29T05:02:27.616Z,0.88
2022-11-29T05:08:13.351Z,0.40
2022-11-29T05:14:12.500Z,1.17
2022-11-29T05:19:54.801Z,0.43
2022-11-29T05:25:54.196Z,0.85
2022-11-29T05:31:53.246Z,1.73
2022-11-29T05:37:32.796Z,0.70
2022-11-29T05:43:22.212Z,0.50
2022-11-29T05:48:56.931Z,0.65
2022-11-29T05:54:47.819Z,0.70
2022-11-29T06:00:12.790Z,0.60
2022-11-29T06:05:56.855Z,0.40
2022-11-29T06:11:38.830Z,0.80
2022-11-29T06:17:39.173Z,0.40
2022-11-29T06:23:48.934Z,0.40
2022-11-29T06:29:13.384Z,0.40
2022-11-29T06:35:02.588Z,4.53
2022-11-29T06:40:24.613Z,0.52
2022-11-29T06:45:57.563Z,1.50
2022-11-29T06:51:25.030Z,0.55
2022-11-29T06:56:52.840Z,2.05
2022-11-29T07:02:28.795Z,0.40
2022-11-29T07:07:54.126Z,1.48
2022-11-29T07:13:17.766Z,0.30
2022-11-29T07:19:00.600Z,0.63
2022-11-29T07:24:37.357Z,0.80
2022-11-29T07:30:17.058Z,0.95
2022-11-29T07:35:47.571Z,1.08
2022-11-29T07:41:46.569Z,0.98
2022-11-29T07:47:08.972Z,1.08
2022-11-29T07:52:30.869Z,0.73
2022-11-29T07:57:53.243Z,0.90
2022-11-29T08:03:15.297Z,3.95
2022-11-29T08:08:42.381Z,3.40
2022-11-29T08:14:05.970Z,1.65
2022-11-29T08:19:27.756Z,2.53
2022-11-29T08:24:49.521Z,3.05
2022-11-29T08:30:11.360Z,0.60
2022-11-29T08:35:35.441Z,1.95
2022-11-29T08:41:02.480Z,1.60
2022-11-29T08:46:44.106Z,2.15
2022-11-29T08:52:24.137Z,3.42
2022-11-29T08:57:46.703Z,1.27
2022-11-29T09:03:27.083Z,1.70
2022-11-29T09:08:48.742Z,2.55
2022-11-29T09:14:15.667Z,2.05
2022-11-29T09:19:37.313Z,2.83
2022-11-29T09:24:59.056Z,1.67
2022-11-29T09:30:23.790Z,1.77
2022-11-29T09:35:46.030Z,0.70
2022-11-29T09:41:47.004Z,2.58
2022-11-29T09:47:09.979Z,2.20
2022-11-29T09:52:54.925Z,2.25
2022-11-29T09:58:21.628Z,2.88
2022-11-29T10:03:47.309Z,1.38
2022-11-29T10:09:53.329Z,3.05
2022-11-29T10:15:31.908Z,2.30
2022-11-29T10:20:58.663Z,2.10
2022-11-29T10:26:28.180Z,1.05
2022-11-29T10:31:56.944Z,2.25
2022-11-29T10:37:21.582Z,1.70
2022-11-29T10:42:49.751Z,2.58
2022-11-29T10:48:20.425Z,2.78
2022-11-29T10:53:42.322Z,2.05
2022-11-29T10:59:09.181Z,3.10
2022-11-29T11:04:45.442Z,1.80
2022-11-29T11:10:28.316Z,1.35
2022-11-29T11:15:55.693Z,2.83
2022-11-29T11:21:20.941Z,2.05
2022-11-29T11:26:45.264Z,2.97
2022-11-29T11:32:18.839Z,2.55
2022-11-29T11:37:40.584Z,4.97
2022-11-29T11:43:03.427Z,4.22
2022-11-29T11:48:25.609Z,5.22
2022-11-29T11:53:52.637Z,5.82
2022-11-29T11:59:21.266Z,3.72
2022-11-29T12:04:43.405Z,4.90
2022-11-29T12:10:11.338Z,5.30
2022-11-29T12:15:38.495Z,4.43
2022-11-29T12:21:06.144Z,4.80
2022-11-29T12:32:44.075Z,3.60
2022-11-29T12:38:08.711Z,5.35
2022-11-29T12:43:55.033Z,4.70
2022-11-29T12:50:05.239Z,5.38
2022-11-29T12:55:47.680Z,7.45
2022-11-29T13:01:23.000Z,5.30
2022-11-29T13:07:03.469Z,8.00
2022-11-29T13:12:42.205Z,4.25
2022-11-29T13:18:19.920Z,5.43
2022-11-29T13:24:09.766Z,6.68
2022-11-29T13:29:32.211Z,5.07
2022-11-29T13:34:58.995Z,7.45
2022-11-29T13:40:48.585Z,10.32
2022-11-29T13:46:19.957Z,6.13
2022-11-29T13:51:41.692Z,6.70
2022-11-29T13:57:06.958Z,7.97
2022-11-29T14:02:30.930Z,6.40
2022-11-29T14:08:42.170Z,11.20
2022-11-29T14:14:15.749Z,7.50
2022-11-29T14:19:37.485Z,12.43
2022-11-29T14:25:49.177Z,13.02
2022-11-29T14:31:04.149Z,10.75
2022-11-29T14:36:42.002Z,8.90
2022-11-29T14:42:25.409Z,10.68
2022-11-29T14:47:50.436Z,5.93
2022-11-29T14:53:34.355Z,7.83
2022-11-29T14:59:33.575Z,10.25
2022-11-29T15:04:57.435Z,12.82
2022-11-29T15:10:26.380Z,8.25
2022-11-29T15:16:19.464Z,7.30
2022-11-29T15:22:09.841Z,5.45
2022-11-29T15:27:34.157Z,6.43
2022-11-29T15:33:00.010Z,9.43
2022-11-29T15:38:23.899Z,7.28
2022-11-29T15:43:49.431Z,8.80
2022-11-29T15:54:51.345Z,6.65
2022-11-29T16:00:24.071Z,3.72
2022-11-29T16:05:51.276Z,7.15
2022-11-29T16:11:20.467Z,5.68
2022-11-29T16:16:45.215Z,8.27
2022-11-29T16:22:12.769Z,5.10
2022-11-29T16:27:36.303Z,5.70
2022-11-29T16:33:00.271Z,4.88
2022-11-29T16:38:23.703Z,9.07
2022-11-29T16:43:53.936Z,6.38
2022-11-29T16:49:36.548Z,7.07
2022-11-29T16:54:58.441Z,7.07
2022-11-29T17:00:25.599Z,12.80
2022-11-29T17:05:47.280Z,8.65
2022-11-29T17:11:11.619Z,8.77
2022-11-29T17:16:33.301Z,8.75
2022-11-29T17:21:55.039Z,6.35
2022-11-29T17:27:16.824Z,8.35
2022-11-29T17:32:38.667Z,9.43
2022-11-29T17:38:00.412Z,7.95
2022-11-29T17:43:22.111Z,6.72
2022-11-29T17:48:46.358Z,10.63
2022-11-29T17:54:08.504Z,6.60
2022-11-29T17:59:30.343Z,6.10
2022-11-29T18:04:52.021Z,4.47
2022-11-29T18:10:13.675Z,6.13
2022-11-29T18:15:35.427Z,4.00
2022-11-29T18:20:59.366Z,5.00
2022-11-29T18:26:23.901Z,4.95
2022-11-29T18:31:46.344Z,6.85
2022-11-29T18:37:13.972Z,20.75
2022-11-29T18:42:38.898Z,15.80
2022-11-29T18:48:00.634Z,29.75
2022-11-29T18:53:22.344Z,18.13
2022-11-29T18:58:46.477Z,13.50
2022-11-29T19:04:11.354Z,26.48
2022-11-29T19:09:33.018Z,24.43
2022-11-29T19:14:55.108Z,12.95
2022-11-29T19:20:17.157Z,24.63
2022-11-29T19:25:38.902Z,11.25
2022-11-29T19:31:00.643Z,16.67
2022-11-29T19:36:30.381Z,11.35
2022-11-29T19:41:52.013Z,10.05
2022-11-29T19:47:13.649Z,8.65
2022-11-29T19:52:35.327Z,13.45
2022-11-29T19:57:57.024Z,27.75
2022-11-29T20:03:18.696Z,15.85
2022-11-29T20:08:41.568Z,10.80
2022-11-29T20:14:05.631Z,7.00
2022-11-29T20:19:27.335Z,9.48
2022-11-29T20:24:49.083Z,12.82
2022-11-29T20:30:11.473Z,26.95
2022-11-29T20:35:33.325Z,10.60
2022-11-29T20:41:12.653Z,13.73
2022-11-29T20:46:34.511Z,12.57
2022-11-29T20:52:03.308Z,18.77
2022-11-29T20:57:24.966Z,15.40
2022-11-29T21:02:46.685Z,8.88
2022-11-29T21:08:08.493Z,12.38
2022-11-29T21:13:30.413Z,8.02
2022-11-29T21:18:54.631Z,13.25
2022-11-29T21:24:41.669Z,7.90
2022-11-29T21:30:06.437Z,10.13
2022-11-29T21:35:28.160Z,9.57
2022-11-29T21:40:49.876Z,12.98
2022-11-29T21:46:11.603Z,19.67
2022-11-29T21:51:33.733Z,11.00
2022-11-29T21:56:56.324Z,10.32
2022-11-29T22:02:18.079Z,13.43
2022-11-29T22:07:39.914Z,6.85
2022-11-29T22:13:01.604Z,9.65
2022-11-29T22:18:27.122Z,9.57
2022-11-29T22:29:14.084Z,10.60
2022-11-29T22:34:35.744Z,6.90
2022-11-29T22:39:57.947Z,5.95
2022-11-29T22:45:19.585Z,5.38
2022-11-29T22:50:41.242Z,5.03
2022-11-29T22:56:04.827Z,6.13
2022-11-29T23:01:29.093Z,4.88
2022-11-29T23:06:50.772Z,7.25
2022-11-29T23:12:12.742Z,4.70
2022-11-29T23:17:34.374Z,6.10
2022-11-29T23:22:56.033Z,3.63
2022-11-29T23:28:18.541Z,6.32
2022-11-29T23:33:40.428Z,4.57
2022-11-29T23:39:02.370Z,5.05
2022-11-29T23:44:24.030Z,5.50
2022-11-29T23:49:45.746Z,3.97
2022-11-29T23:55:07.855Z,5.28
